Time;durP1;ratioP1;P1;durP2;ratioP2;P2;SDS_P1;SDS_P2;PMS_P1;PMS_P2;Temp;Humidity;BMP_temperature;BMP_pressure;BME280_temperature;BME280_humidity;BME280_pressure;Samples;Min_cycle;Max_cycle;Signal;HPM_P1;HPM_P2
2022/09/29 00:02:09;;;;;;;7.65;3.22;;;;;;;21.20;62.31;96586.22;4441499;32;20101;-78
2022/09/29 00:04:36;;;;;;;9.73;3.42;;;;;;;21.46;61.64;96596.50;4441674;32;20114;-78
2022/09/29 00:07:03;;;;;;;7.62;3.30;;;;;;;20.70;64.75;96594.28;4441783;32;20454;-78
2022/09/29 00:09:30;;;;;;;8.07;3.47;;;;;;;21.13;63.35;96598.34;4441391;32;20080;-78
2022/09/29 00:11:56;;;;;;;8.02;3.03;;;;;;;21.06;63.52;96598.22;4441734;32;20428;-78
2022/09/29 00:14:24;;;;;;;7.20;3.25;;;;;;;20.38;65.73;96590.62;4441553;32;20102;-78
2022/09/29 00:16:51;;;;;;;6.28;3.00;;;;;;;21.00;64.03;96596.25;4441400;32;20090;-78
2022/09/29 00:19:18;;;;;;;14.60;3.30;;;;;;;21.18;63.49;96592.63;4441597;32;20080;-78
2022/09/29 00:21:45;;;;;;;9.57;3.40;;;;;;;21.07;63.97;96589.34;4441661;32;20094;-78
2022/09/29 00:24:12;;;;;;;9.70;3.30;;;;;;;20.89;64.54;96590.53;4441228;32;20104;-78
2022/09/29 00:26:39;;;;;;;8.82;3.22;;;;;;;20.67;65.51;96594.63;4441634;32;20089;-78
2022/09/29 00:29:06;;;;;;;7.72;3.55;;;;;;;20.57;65.89;96581.69;4441606;32;20080;-78
2022/09/29 00:31:33;;;;;;;8.85;3.50;;;;;;;20.70;65.31;96582.00;4441105;32;20108;-78
2022/09/29 00:34:01;;;;;;;8.27;3.40;;;;;;;20.63;65.90;96582.81;4441468;32;20101;-78
2022/09/29 00:36:28;;;;;;;9.43;3.15;;;;;;;20.63;65.99;96575.78;4441293;32;20104;-78
2022/09/29 00:38:57;;;;;;;8.40;3.50;;;;;;;21.12;64.35;96583.59;4441196;32;20167;-78
2022/09/29 00:41:26;;;;;;;8.93;4.12;;;;;;;20.89;65.26;96583.47;4441548;32;20090;-78
2022/09/29 00:44:12;;;;;;;8.55;3.40;;;;;;;21.19;63.98;96586.37;4441468;32;20116;-78
2022/09/29 00:46:57;;;;;;;9.63;3.60;;;;;;;21.46;62.76;96583.38;4441504;32;20078;-78
2022/09/29 00:49:50;;;;;;;9.00;3.75;;;;;;;21.28;63.41;96585.41;4441520;32;20073;-78
2022/09/29 00:52:22;;;;;;;7.47;3.37;;;;;;;20.72;65.65;96587.88;4427378;32;20093;-78
2022/09/29 00:54:51;;;;;;;10.80;3.70;;;;;;;20.90;65.13;96581.66;4427508;32;20123;-78
2022/09/29 00:57:21;;;;;;;8.52;3.40;;;;;;;20.97;64.62;96574.78;4441356;32;20093;-78
2022/09/29 01:00:09;;;;;;;8.00;3.40;;;;;;;20.65;66.42;96578.25;4441039;32;20085;-78
2022/09/29 01:02:39;;;;;;;7.28;3.40;;;;;;;20.73;65.89;96576.41;4441537;32;20116;-78
2022/09/29 01:05:09;;;;;;;10.32;3.50;;;;;;;20.49;67.00;96571.19;4441264;32;20093;-78
2022/09/29 01:07:36;;;;;;;10.68;3.58;;;;;;;20.41;67.63;96579.00;4441437;32;20108;-78
2022/09/29 01:10:05;;;;;;;8.45;3.40;;;;;;;19.89;69.70;96574.84;4440193;32;20073;-78
2022/09/29 01:12:32;;;;;;;9.38;3.58;;;;;;;19.96;69.38;96572.38;4441026;32;20108;-78
2022/09/29 01:14:59;;;;;;;7.68;3.33;;;;;;;20.28;68.48;96576.03;4441076;32;20116;-78
2022/09/29 01:17:27;;;;;;;10.02;3.75;;;;;;;20.06;68.99;96572.25;4441260;32;20093;-78
2022/09/29 01:20:05;;;;;;;11.43;3.60;;;;;;;19.93;70.12;96573.53;4440883;32;20085;-78
2022/09/29 01:22:47;;;;;;;8.55;3.60;;;;;;;19.91;70.59;96572.03;4427467;32;20102;-78
2022/09/29 01:25:52;;;;;;;9.90;3.83;;;;;;;20.39;68.76;96567.88;4441051;32;20420;-78
2022/09/29 01:28:30;;;;;;;7.93;3.70;;;;;;;20.32;68.92;96562.47;4440897;32;20082;-78
2022/09/29 01:31:24;;;;;;;9.25;3.42;;;;;;;20.70;67.46;96552.34;4441203;32;20101;-78
2022/09/29 01:34:04;;;;;;;8.32;3.55;;;;;;;21.04;65.71;96560.81;4432537;32;20134;-79
2022/09/29 01:36:49;;;;;;;7.93;3.62;;;;;;;21.11;65.73;96562.78;4427075;32;20090;-78
2022/09/29 01:39:29;;;;;;;8.85;3.72;;;;;;;21.11;65.09;96568.03;4441149;32;20154;-78
2022/09/29 01:42:15;;;;;;;8.93;3.75;;;;;;;21.55;63.10;96568.44;4440891;32;20510;-78
2022/09/29 01:45:07;;;;;;;9.00;3.60;;;;;;;21.29;63.97;96566.06;4427284;32;20441;-78
2022/09/29 01:47:39;;;;;;;8.48;3.55;;;;;;;21.36;64.28;96573.06;4418386;32;20110;-78
2022/09/29 01:50:11;;;;;;;8.48;3.92;;;;;;;21.83;62.04;96581.94;4427128;32;20085;-78
2022/09/29 01:52:42;;;;;;;8.52;3.35;;;;;;;21.67;62.73;96580.19;4441108;32;20100;-78
2022/09/29 01:55:12;;;;;;;8.23;3.60;;;;;;;21.50;63.28;96570.75;4426773;32;20178;-78
2022/09/29 01:58:06;;;;;;;9.77;3.00;;;;;;;21.22;64.12;96571.13;4427144;32;20132;-78
2022/09/29 02:00:38;;;;;;;7.93;2.42;;;;;;;20.47;66.97;96560.06;4427196;32;20108;-78
2022/09/29 02:03:10;;;;;;;4.53;1.75;;;;;;;19.79;69.22;96565.47;4440689;32;20400;-78
2022/09/29 02:05:39;;;;;;;4.20;1.80;;;;;;;19.07;70.57;96565.75;4427060;32;20097;-78
2022/09/29 02:08:15;;;;;;;6.55;1.90;;;;;;;16.97;80.27;96555.56;4440873;32;20102;-78
2022/09/29 02:11:00;;;;;;;6.37;1.80;;;;;;;17.27;79.13;96557.09;4440534;32;20108;-78
2022/09/29 02:13:29;;;;;;;5.32;1.70;;;;;;;17.26;79.41;96557.25;4440998;32;20099;-78
2022/09/29 02:15:57;;;;;;;5.62;1.65;;;;;;;16.45;83.45;96559.44;4440405;32;20151;-78
2022/09/29 02:18:41;;;;;;;3.22;1.62;;;;;;;16.03;86.24;96564.91;4440838;32;20111;-78
2022/09/29 02:21:08;;;;;;;3.42;1.45;;;;;;;14.92;89.91;96567.50;4440511;32;20082;-78
2022/09/29 02:23:35;;;;;;;5.80;2.03;;;;;;;14.62;91.73;96563.09;4440493;32;20099;-78
2022/09/29 02:26:02;;;;;;;4.90;1.80;;;;;;;14.99;90.98;96575.59;4440633;32;20105;-78
2022/09/29 02:28:29;;;;;;;5.53;2.00;;;;;;;15.64;86.11;96568.41;4440811;32;20369;-78
2022/09/29 02:30:56;;;;;;;3.78;1.75;;;;;;;15.98;84.58;96567.09;4440310;32;20131;-78
2022/09/29 02:33:24;;;;;;;4.05;1.58;;;;;;;16.88;80.25;96572.03;4426820;32;20428;-78
2022/09/29 02:36:09;;;;;;;4.20;1.60;;;;;;;15.16;85.76;96558.59;4440637;32;20108;-78
2022/09/29 02:39:07;;;;;;;3.35;1.48;;;;;;;15.74;84.56;96559.66;4440405;32;20093;-78
2022/09/29 02:41:52;;;;;;;4.30;1.50;;;;;;;15.94;82.70;96554.47;4440690;32;20474;-79
2022/09/29 02:44:35;;;;;;;3.50;1.58;;;;;;;17.06;76.91;96564.31;4426590;32;20081;-78
2022/09/29 02:47:41;;;;;;;4.32;1.80;;;;;;;15.72;83.36;96555.53;4440530;32;20097;-78
2022/09/29 02:50:24;;;;;;;3.25;1.55;;;;;;;14.81;88.13;96548.59;4418129;32;20097;-78
2022/09/29 02:52:59;;;;;;;4.78;1.85;;;;;;;15.02;86.93;96550.22;4440637;32;20104;-78
2022/09/29 02:55:41;;;;;;;3.58;1.70;;;;;;;15.16;86.13;96549.03;4426634;32;20073;-78
2022/09/29 02:58:20;;;;;;;5.45;1.90;;;;;;;15.32;86.13;96548.56;4440237;32;20101;-78
2022/09/29 03:00:47;;;;;;;2.83;1.67;;;;;;;16.35;80.67;96549.03;4426844;32;20109;-78
2022/09/29 03:03:14;;;;;;;4.20;1.70;;;;;;;15.50;83.95;96552.16;4440498;32;20090;-78
2022/09/29 03:05:41;;;;;;;3.72;1.62;;;;;;;16.26;81.21;96559.44;4440060;32;20081;-78
2022/09/29 03:08:08;;;;;;;3.40;1.73;;;;;;;16.50;80.02;96557.25;4440414;32;20112;-78
2022/09/29 03:10:35;;;;;;;4.97;1.90;;;;;;;16.24;81.64;96554.38;4440397;32;20220;-78
2022/09/29 03:13:01;;;;;;;3.35;1.70;;;;;;;16.16;81.90;96562.87;4440173;32;20105;-78
2022/09/29 03:15:28;;;;;;;3.33;1.60;;;;;;;17.23;76.62;96563.59;4440277;32;20077;-78
2022/09/29 03:17:58;;;;;;;4.97;1.87;;;;;;;16.92;76.82;96559.56;4440422;32;20115;-78
2022/09/29 03:20:25;;;;;;;7.40;1.95;;;;;;;16.16;80.15;96562.87;4440048;32;20102;-79
2022/09/29 03:22:56;;;;;;;5.43;2.30;;;;;;;16.32;80.76;96569.31;4440427;32;20086;-79
2022/09/29 03:25:24;;;;;;;4.45;2.12;;;;;;;16.85;77.79;96574.91;4440269;32;20550;-79
2022/09/29 03:27:51;;;;;;;9.68;2.58;;;;;;;17.02;76.75;96581.19;4439945;32;20097;-79
2022/09/29 03:30:18;;;;;;;6.28;2.65;;;;;;;16.65;78.14;96575.88;4440212;32;20101;-78
2022/09/29 03:32:45;;;;;;;6.62;2.80;;;;;;;16.18;79.96;96573.97;4438868;32;20085;-78
2022/09/29 03:35:12;;;;;;;6.53;2.67;;;;;;;16.26;79.51;96578.47;4440116;32;20116;-79
2022/09/29 03:37:39;;;;;;;6.05;2.80;;;;;;;16.90;77.07;96584.91;4439566;32;20445;-78
2022/09/29 03:40:06;;;;;;;6.65;2.65;;;;;;;16.18;79.44;96580.97;4439808;32;20105;-79
2022/09/29 03:42:33;;;;;;;5.80;2.67;;;;;;;15.41;81.54;96578.94;4440151;32;20100;-78
2022/09/29 03:45:00;;;;;;;7.25;2.92;;;;;;;15.30;83.24;96576.44;4435495;32;146683;-78
2022/09/29 03:47:27;;;;;;;8.02;3.15;;;;;;;15.63;81.71;96570.19;4439737;32;20105;-78
2022/09/29 03:49:54;;;;;;;7.18;3.28;;;;;;;15.46;82.80;96576.78;4440179;32;20094;-78
2022/09/29 03:52:21;;;;;;;8.18;3.22;;;;;;;14.75;85.91;96574.09;4439982;32;20104;-78
2022/09/29 03:54:47;;;;;;;6.75;3.05;;;;;;;15.99;80.47;96570.53;4439455;32;20077;-78
2022/09/29 03:57:14;;;;;;;6.75;3.05;;;;;;;15.96;80.69;96582.03;4440050;32;20112;-78
2022/09/29 03:59:41;;;;;;;8.75;3.45;;;;;;;15.62;81.90;96573.72;4439934;32;20108;-78
2022/09/29 04:02:11;;;;;;;6.85;3.05;;;;;;;16.26;78.48;96575.88;4439543;32;20106;-78
2022/09/29 04:04:38;;;;;;;8.85;3.15;;;;;;;16.34;78.44;96567.38;4439841;32;20082;-78
2022/09/29 04:07:05;;;;;;;7.03;2.80;;;;;;;16.67;77.65;96579.97;4439812;32;20119;-78
2022/09/29 04:09:32;;;;;;;6.90;2.80;;;;;;;16.21;78.14;96567.66;4439463;32;20098;-78
2022/09/29 04:11:59;;;;;;;5.10;2.60;;;;;;;16.02;79.29;96568.47;4439626;32;20104;-78
2022/09/29 04:14:26;;;;;;;6.00;2.60;;;;;;;15.44;80.35;96578.69;4439628;32;20077;-78
2022/09/29 04:16:53;;;;;;;5.85;2.40;;;;;;;14.95;82.53;96577.63;4439285;32;20094;-78
2022/09/29 04:19:20;;;;;;;6.03;2.75;;;;;;;14.67;83.39;96575.69;4439634;32;20437;-78
2022/09/29 04:21:47;;;;;;;5.00;2.33;;;;;;;14.33;85.57;96573.22;4439284;32;20100;-78
2022/09/29 04:24:14;;;;;;;4.20;2.20;;;;;;;13.76;88.27;96576.94;4439425;32;20077;-78
2022/09/29 04:26:40;;;;;;;4.35;1.92;;;;;;;14.02;86.49;96574.84;4439419;32;20450;-78
2022/09/29 04:29:07;;;;;;;4.45;2.00;;;;;;;14.20;85.33;96585.53;4439292;32;20093;-78
2022/09/29 04:31:34;;;;;;;3.05;1.77;;;;;;;13.70;88.01;96581.75;4439253;32;20086;-78
2022/09/29 04:34:01;;;;;;;4.20;2.05;;;;;;;13.62;87.62;96586.75;4439373;32;20078;-78
2022/09/29 04:36:28;;;;;;;5.65;2.10;;;;;;;13.66;86.91;96590.75;4438815;32;20105;-78
2022/09/29 04:38:55;;;;;;;5.30;2.10;;;;;;;13.70;86.98;96592.13;4439353;32;20089;-78
2022/09/29 04:41:22;;;;;;;4.55;2.17;;;;;;;14.79;82.85;96595.47;4439332;32;20077;-78
2022/09/29 04:43:49;;;;;;;5.37;2.35;;;;;;;15.31;80.32;96604.06;4439402;32;20086;-78
2022/09/29 04:46:16;;;;;;;3.42;1.83;;;;;;;16.40;75.85;96606.72;4441526;32;20105;-78
2022/09/29 04:48:43;;;;;;;3.78;1.80;;;;;;;17.24;71.19;96613.94;4441256;32;20104;-78
2022/09/29 04:51:10;;;;;;;4.28;1.75;;;;;;;16.35;74.47;96603.69;4441009;32;20432;-78
2022/09/29 04:53:37;;;;;;;3.60;1.73;;;;;;;15.29;78.65;96604.19;4441480;32;20104;-78
2022/09/29 04:56:06;;;;;;;3.85;1.70;;;;;;;15.09;79.96;96619.81;4441286;32;20361;-78
2022/09/29 04:58:33;;;;;;;4.47;1.98;;;;;;;15.36;78.45;96619.28;4441025;32;20441;-78
2022/09/29 05:01:13;;;;;;;4.50;1.48;;;;;;;14.69;80.27;96621.34;4441355;32;20085;-78
2022/09/29 05:03:41;;;;;;;2.10;1.40;;;;;;;15.23;79.05;96617.72;4427973;32;20437;-78
2022/09/29 05:06:09;;;;;;;3.28;1.60;;;;;;;15.20;78.56;96625.75;4441335;32;20093;-78
2022/09/29 05:08:35;;;;;;;3.58;1.30;;;;;;;16.68;72.00;96638.94;4441341;32;20444;-78
2022/09/29 05:11:05;;;;;;;3.10;1.60;;;;;;;16.83;70.56;96641.16;4440926;32;20085;-78
2022/09/29 05:13:32;;;;;;;3.45;1.48;;;;;;;14.72;78.71;96641.03;4441240;32;20104;-77
2022/09/29 05:15:59;;;;;;;4.20;1.50;;;;;;;15.19;76.07;96636.28;4441035;32;20105;-80
2022/09/29 05:18:26;;;;;;;2.50;1.50;;;;;;;15.49;75.57;96640.69;4440888;32;20165;-78
2022/09/29 05:20:54;;;;;;;6.10;1.83;;;;;;;14.66;78.86;96639.75;4441226;32;20106;-78
2022/09/29 05:23:41;;;;;;;5.18;2.05;;;;;;;15.32;77.14;96647.31;4441506;32;20131;-78
2022/09/29 05:26:09;;;;;;;5.07;1.70;;;;;;;14.45;80.40;96649.28;4440810;32;20683;-78
2022/09/29 05:28:38;;;;;;;3.10;1.48;;;;;;;14.96;78.50;96648.59;4441108;32;20097;-78
2022/09/29 05:31:06;;;;;;;3.75;1.67;;;;;;;14.32;81.16;96641.63;4441075;32;20081;-78
2022/09/29 05:33:35;;;;;;;2.75;1.50;;;;;;;14.56;80.52;96643.22;4440807;32;20081;-78
2022/09/29 05:36:07;;;;;;;3.08;1.58;;;;;;;14.43;81.81;96651.97;4440912;32;20101;-78
2022/09/29 05:38:35;;;;;;;2.40;1.40;;;;;;;14.67;78.83;96651.81;4440785;32;20108;-78
2022/09/29 05:41:09;;;;;;;2.83;1.50;;;;;;;14.55;79.28;96647.59;4440873;32;20457;-78
2022/09/29 05:43:36;;;;;;;2.40;1.42;;;;;;;14.98;78.04;96639.72;4441181;32;20151;-78
2022/09/29 05:46:04;;;;;;;2.65;1.17;;;;;;;14.00;81.50;96636.41;4440522;32;20136;-78
2022/09/29 05:48:32;;;;;;;1.48;1.20;;;;;;;14.65;78.51;96632.91;4441059;32;20105;-78
2022/09/29 05:51:05;;;;;;;7.80;1.70;;;;;;;14.35;79.75;96630.16;4440949;32;20089;-78
2022/09/29 05:53:31;;;;;;;2.40;1.30;;;;;;;13.52;82.86;96641.88;4440742;32;20073;-78
2022/09/29 05:56:02;;;;;;;2.50;1.08;;;;;;;14.32;79.57;96648.59;4440062;32;20116;-78
2022/09/29 05:58:30;;;;;;;3.80;1.70;;;;;;;15.01;76.00;96647.25;4437094;32;20108;-77
2022/09/29 06:00:57;;;;;;;2.28;1.25;;;;;;;14.31;78.66;96652.94;4439991;32;20766;-78
2022/09/29 06:03:25;;;;;;;3.20;1.42;;;;;;;15.11;76.60;96656.91;4439884;32;20492;-77
2022/09/29 06:05:54;;;;;;;2.03;1.10;;;;;;;15.32;75.96;96668.94;4438987;32;20093;-77
2022/09/29 06:08:21;;;;;;;1.52;1.10;;;;;;;15.73;73.50;96677.63;4440062;32;20146;-79
2022/09/29 06:10:47;;;;;;;3.37;1.10;;;;;;;16.23;72.01;96679.44;4439433;32;20100;-79
2022/09/29 06:13:14;;;;;;;2.83;1.10;;;;;;;16.59;70.66;96690.97;4440573;32;20104;-80
2022/09/29 06:15:41;;;;;;;3.47;1.02;;;;;;;16.59;69.68;96680.56;4440313;32;20108;-78
2022/09/29 06:18:08;;;;;;;3.17;1.00;;;;;;;16.16;71.63;96682.59;4440753;32;20106;-78
2022/09/29 06:20:37;;;;;;;2.95;0.80;;;;;;;16.37;70.90;96677.25;4440842;32;20077;-77
2022/09/29 06:23:04;;;;;;;1.87;0.95;;;;;;;16.46;69.98;96678.22;4440445;32;20368;-79
2022/09/29 06:25:31;;;;;;;6.00;0.90;;;;;;;16.71;69.18;96682.97;4440603;32;20682;-79
2022/09/29 06:27:58;;;;;;;2.12;0.90;;;;;;;17.78;64.86;96691.47;4440555;32;20112;-80
2022/09/29 06:30:25;;;;;;;3.72;1.00;;;;;;;18.92;59.91;96690.09;4440765;32;20108;-79
2022/09/29 06:32:54;;;;;;;2.47;0.80;;;;;;;18.24;62.42;96691.53;4440498;32;20157;-79
2022/09/29 06:38:06;;;;;;;0.98;0.65;;;;;;;17.19;65.90;96691.69;4440436;32;20085;-80
2022/09/29 06:40:33;;;;;;;0.70;0.70;;;;;;;16.76;67.46;96698.16;4426722;32;20086;-80
2022/09/29 06:43:01;;;;;;;1.67;0.80;;;;;;;17.58;64.28;96701.09;4440357;32;20077;-80
2022/09/29 06:45:28;;;;;;;2.20;0.70;;;;;;;18.48;60.48;96702.22;4440451;32;20467;-80
2022/09/29 06:47:59;;;;;;;0.70;0.70;;;;;;;17.06;65.75;96690.22;4426804;32;20119;-80
2022/09/29 06:50:26;;;;;;;4.43;0.80;;;;;;;16.45;68.66;96684.41;4440143;32;20104;-80
2022/09/29 06:52:53;;;;;;;0.82;0.75;;;;;;;16.70;67.66;96689.12;4440561;32;20104;-80
2022/09/29 06:55:30;;;;;;;0.95;0.70;;;;;;;17.02;67.63;96688.03;4440574;32;20415;-80
2022/09/29 06:57:57;;;;;;;4.55;0.90;;;;;;;16.29;69.22;96690.12;4440274;32;20112;-81
2022/09/29 07:00:29;;;;;;;1.42;0.95;;;;;;;15.14;75.76;96688.62;4440615;32;20100;-80
2022/09/29 07:02:56;;;;;;;2.72;0.98;;;;;;;14.94;77.18;96682.47;4426637;32;20085;-80
2022/09/29 07:05:23;;;;;;;0.73;0.70;;;;;;;15.96;71.99;96686.06;4440061;32;20098;-80
2022/09/29 07:07:50;;;;;;;0.90;0.73;;;;;;;16.26;71.51;96689.56;4440451;32;20094;-80
2022/09/29 07:10:21;;;;;;;6.07;1.15;;;;;;;15.55;73.05;96684.38;4440005;32;20154;-80
2022/09/29 07:12:48;;;;;;;2.42;0.93;;;;;;;15.23;75.64;96685.28;4440293;32;20081;-80
2022/09/29 07:15:14;;;;;;;1.17;0.60;;;;;;;16.01;71.03;96688.28;4440197;32;20106;-79
2022/09/29 07:17:41;;;;;;;2.80;0.95;;;;;;;15.85;70.20;96692.19;4440104;32;20108;-80
2022/09/29 07:20:08;;;;;;;2.25;0.80;;;;;;;15.34;72.15;96686.97;4440394;32;20085;-82
2022/09/29 07:22:35;;;;;;;1.45;0.60;;;;;;;15.60;71.12;96684.81;4440088;32;20449;-79
2022/09/29 07:25:02;;;;;;;1.37;0.68;;;;;;;15.45;69.93;96680.88;4439782;32;20098;-79
2022/09/29 07:27:29;;;;;;;1.20;0.65;;;;;;;15.10;71.71;96683.78;4440277;32;20150;-79
2022/09/29 07:29:56;;;;;;;0.90;0.50;;;;;;;15.38;70.77;96684.94;4440341;32;20099;-79
2022/09/29 07:32:31;;;;;;;2.40;0.50;;;;;;;15.70;68.15;96692.66;4440034;32;20077;-79
2022/09/29 07:35:01;;;;;;;4.12;0.73;;;;;;;15.86;67.53;96695.63;4426356;32;20105;-79
2022/09/29 07:37:29;;;;;;;1.02;0.50;;;;;;;16.72;63.72;96702.84;4439817;32;20081;-79
2022/09/29 07:39:56;;;;;;;2.62;0.55;;;;;;;16.40;65.16;96703.03;4439919;32;20085;-79
2022/09/29 07:42:23;;;;;;;1.27;0.45;;;;;;;15.99;66.95;96693.59;4440078;32;20432;-79
2022/09/29 07:44:50;;;;;;;4.93;0.70;;;;;;;15.43;66.98;96707.00;4439900;32;20151;-79
2022/09/29 07:47:18;;;;;;;0.95;0.62;;;;;;;14.97;70.61;96709.97;4439714;32;20107;-79
2022/09/29 07:49:45;;;;;;;2.28;0.70;;;;;;;15.61;71.86;96710.69;4439965;32;20108;-80
2022/09/29 07:52:13;;;;;;;1.08;0.80;;;;;;;15.99;68.62;96708.41;4439585;32;20108;-79
2022/09/29 07:54:40;;;;;;;0.62;0.50;;;;;;;16.47;67.37;96718.91;4439771;32;20094;-79
2022/09/29 07:57:06;;;;;;;1.25;0.60;;;;;;;17.17;63.01;96732.72;4439879;32;20108;-80
2022/09/29 07:59:33;;;;;;;1.20;0.77;;;;;;;18.26;59.83;96742.62;4425798;32;20479;-79
2022/09/29 08:02:01;;;;;;;2.90;0.52;;;;;;;18.46;57.36;96744.16;4439849;32;20475;-79
2022/09/29 08:04:28;;;;;;;1.27;0.65;;;;;;;17.35;60.84;96729.28;4439582;32;20101;-80
2022/09/29 08:06:55;;;;;;;2.90;0.77;;;;;;;18.20;59.62;96736.19;4439426;32;20085;-80
2022/09/29 08:09:23;;;;;;;1.52;0.52;;;;;;;18.42;58.04;96752.44;4439673;32;20085;-80
2022/09/29 08:12:03;;;;;;;2.35;0.70;;;;;;;18.67;56.70;96738.72;4439802;32;20077;-79
2022/09/29 08:14:34;;;;;;;1.12;0.50;;;;;;;19.10;55.90;96749.41;4439286;32;20094;-79
2022/09/29 08:17:01;;;;;;;1.02;0.60;;;;;;;18.30;59.05;96753.59;4439688;32;20093;-79
2022/09/29 08:19:28;;;;;;;1.08;0.60;;;;;;;16.76;63.61;96751.09;4440685;32;20085;-81
2022/09/29 08:21:55;;;;;;;2.05;0.65;;;;;;;17.28;62.41;96754.25;4441286;32;20089;-78
2022/09/29 08:24:24;;;;;;;0.77;0.60;;;;;;;18.26;57.56;96762.69;4441460;32;20424;-79
2022/09/29 08:26:50;;;;;;;1.95;0.73;;;;;;;19.94;53.27;96762.81;4441649;32;20150;-79
2022/09/29 08:29:17;;;;;;;3.92;0.68;;;;;;;18.49;56.64;96763.94;4441168;32;20089;-79
2022/09/29 08:31:44;;;;;;;1.05;0.43;;;;;;;18.45;57.85;96765.22;4441547;32;20104;-79
2022/09/29 08:34:12;;;;;;;1.12;0.70;;;;;;;17.99;59.15;96766.91;4441418;32;20440;-78
2022/09/29 08:36:40;;;;;;;2.50;0.65;;;;;;;18.99;56.31;96760.91;4441604;32;20441;-78
2022/09/29 08:39:09;;;;;;;1.80;0.80;;;;;;;18.64;56.06;96770.34;4441306;32;20169;-78
2022/09/29 08:41:45;;;;;;;2.15;0.75;;;;;;;19.69;54.74;96771.50;4441111;32;20108;-79
2022/09/29 08:44:25;;;;;;;2.87;0.73;;;;;;;17.93;60.18;96788.34;4441493;32;20542;-79
2022/09/29 08:47:23;;;;;;;1.92;0.80;;;;;;;20.31;53.01;96788.72;4441412;32;20143;-79
2022/09/29 08:50:32;;;;;;;1.52;0.65;;;;;;;21.08;49.76;96792.91;4441408;32;20495;-79
2022/09/29 08:53:04;;;;;;;2.45;0.70;;;;;;;21.14;49.54;96796.69;4422321;32;20078;-79
2022/09/29 08:55:40;;;;;;;1.70;0.70;;;;;;;21.76;48.39;96804.12;4440965;32;20120;-79
2022/09/29 08:58:11;;;;;;;1.45;0.52;;;;;;;21.52;49.19;96792.66;4441413;32;20433;-79
2022/09/29 09:01:17;;;;;;;1.17;0.70;;;;;;;21.23;50.65;96792.28;4441321;32;20099;-79
2022/09/29 09:04:08;;;;;;;0.75;0.70;;;;;;;21.44;49.83;96784.78;4409072;32;20081;-79
2022/09/29 09:06:51;;;;;;;3.75;0.70;;;;;;;22.21;47.42;96786.00;4441364;32;20086;-79
2022/09/29 09:09:43;;;;;;;1.17;0.60;;;;;;;20.47;51.96;96778.31;4441106;32;20093;-80
2022/09/29 09:12:31;;;;;;;2.47;0.80;;;;;;;22.50;46.74;96803.00;4441306;32;20115;-78
2022/09/29 09:15:13;;;;;;;1.60;0.70;;;;;;;22.87;45.79;96796.31;4441084;32;20525;-78
2022/09/29 09:17:40;;;;;;;2.42;0.88;;;;;;;23.48;44.75;96797.22;4440976;32;20208;-78
2022/09/29 09:20:33;;;;;;;0.68;0.60;;;;;;;22.12;48.66;96780.97;4441309;32;20120;-79
2022/09/29 09:23:14;;;;;;;1.95;0.70;;;;;;;20.76;51.77;96775.31;4427615;32;20085;-79
2022/09/29 09:25:51;;;;;;;5.07;0.80;;;;;;;21.52;50.74;96783.97;4426798;32;20153;-79
2022/09/29 09:28:34;;;;;;;;;;;;;;;22.33;48.78;96791.75;4427642;32;20105;-79
2022/09/29 09:31:13;;;;;;;0.70;0.52;;;;;;;21.84;48.96;96788.38;4440097;32;20014;-80
2022/09/29 09:34:30;;;;;;;2.17;0.70;;;;;;;22.43;46.94;96787.09;4440876;32;20424;-80
2022/09/29 09:37:19;;;;;;;1.05;0.70;;;;;;;20.61;52.46;96781.31;4441114;32;20084;-79
2022/09/29 09:39:50;;;;;;;0.80;0.70;;;;;;;19.84;54.93;96773.38;4427262;32;20448;-80
2022/09/29 09:42:22;;;;;;;2.22;0.70;;;;;;;19.99;55.04;96780.66;4427207;32;20105;-80
2022/09/29 09:44:53;;;;;;;0.73;0.70;;;;;;;20.49;53.09;96778.16;4440682;32;20093;-80
2022/09/29 09:47:33;;;;;;;3.42;1.10;;;;;;;19.59;55.55;96785.50;4427138;32;20108;-79
2022/09/29 09:50:03;;;;;;;1.95;0.80;;;;;;;20.75;52.59;96781.53;4427836;32;20122;-80
2022/09/29 09:52:40;;;;;;;2.97;0.70;;;;;;;20.15;55.07;96775.53;4426988;32;20121;-81
2022/09/29 09:58:53;;;;;;;4.28;0.75;;;;;;;21.18;51.42;96787.53;4442055;32;20450;-82
2022/09/29 10:01:21;;;;;;;2.37;0.75;;;;;;;20.77;53.51;96787.44;4446086;32;20070;-82
2022/09/29 10:03:48;;;;;;;1.42;0.60;;;;;;;21.89;50.76;96792.13;4430518;32;20113;-81
2022/09/29 10:06:15;;;;;;;0.73;0.50;;;;;;;21.19;53.14;96797.03;4440604;32;20107;-80
2022/09/29 10:08:42;;;;;;;1.25;0.55;;;;;;;19.76;56.68;96781.19;4441019;32;20150;-80
2022/09/29 10:11:18;;;;;;;1.35;0.68;;;;;;;21.05;52.81;96792.41;4440935;32;20459;-80
2022/09/29 10:13:46;;;;;;;1.97;0.53;;;;;;;20.94;53.37;96788.28;4440553;32;20097;-80
2022/09/29 10:16:20;;;;;;;3.17;0.70;;;;;;;21.46;50.39;96798.56;4427021;32;20146;-80
2022/09/29 10:18:51;;;;;;;0.75;0.60;;;;;;;22.22;48.67;96807.84;4427413;32;20364;-80
2022/09/29 10:21:28;;;;;;;4.57;0.90;;;;;;;23.25;46.16;96813.00;4440533;32;20145;-81
2022/09/29 10:23:56;;;;;;;0.98;0.70;;;;;;;23.45;45.47;96808.91;4440828;32;20436;-81
2022/09/29 10:26:33;;;;;;;2.00;0.65;;;;;;;23.62;44.29;96812.28;4440866;32;20089;-81
2022/09/29 10:29:03;;;;;;;1.42;0.80;;;;;;;22.77;46.12;96809.66;4440769;32;20360;-80
2022/09/29 10:31:33;;;;;;;2.08;0.88;;;;;;;22.99;46.26;96808.91;4426824;32;20102;-80
2022/09/29 10:34:23;;;;;;;2.05;0.82;;;;;;;23.11;46.31;96801.44;4440286;32;20460;-80
2022/09/29 10:36:53;;;;;;;1.55;0.70;;;;;;;22.98;47.95;96796.75;4432559;32;20089;-80
2022/09/29 10:39:49;;;;;;;8.05;1.10;;;;;;;23.79;46.72;96803.22;4426659;32;20081;-80
2022/09/29 10:42:24;;;;;;;2.05;1.00;;;;;;;23.71;46.86;96807.75;4427022;32;20506;-80
2022/09/29 10:44:54;;;;;;;1.70;0.90;;;;;;;24.52;45.77;96807.78;4440595;32;20108;-80
2022/09/29 10:47:22;;;;;;;3.80;1.25;;;;;;;24.15;44.38;96811.31;4426763;32;20085;-80
2022/09/29 10:50:08;;;;;;;2.00;1.00;;;;;;;23.98;45.53;96814.28;4438264;32;20097;-80
2022/09/29 10:52:36;;;;;;;2.40;1.00;;;;;;;23.57;45.93;96811.94;4425105;32;20119;-80
2022/09/29 10:55:03;;;;;;;4.20;0.82;;;;;;;23.51;46.92;96804.78;4438701;32;20166;-80
2022/09/29 10:57:32;;;;;;;2.67;1.00;;;;;;;23.82;46.64;96805.53;4440122;32;20190;-80
2022/09/29 10:59:59;;;;;;;1.70;1.00;;;;;;;24.30;45.18;96810.47;4439909;32;20112;-80
2022/09/29 11:02:45;;;;;;;2.10;1.20;;;;;;;24.52;45.25;96813.06;4439407;32;20094;-79
2022/09/29 11:05:19;;;;;;;5.53;1.40;;;;;;;24.11;46.07;96814.47;4439678;32;20157;-80
2022/09/29 11:07:48;;;;;;;3.90;1.23;;;;;;;22.83;49.13;96808.13;4426287;32;20089;-80
2022/09/29 11:10:41;;;;;;;3.78;1.40;;;;;;;20.81;53.87;96801.03;4439720;32;20085;-79
2022/09/29 11:13:23;;;;;;;2.45;1.17;;;;;;;21.62;52.48;96795.13;4423222;32;20467;-80
2022/09/29 11:15:50;;;;;;;2.25;1.20;;;;;;;21.83;53.79;96800.69;4439089;32;20108;-80
2022/09/29 11:18:34;;;;;;;3.50;1.50;;;;;;;20.20;61.20;96794.19;4439792;32;20649;-80
2022/09/29 11:21:16;;;;;;;2.58;1.33;;;;;;;20.03;62.15;96802.97;4439377;32;20089;-80
2022/09/29 11:24:06;;;;;;;4.70;1.52;;;;;;;20.06;63.73;96805.25;4427936;32;20109;-80
2022/09/29 11:27:09;;;;;;;6.30;2.05;;;;;;;20.34;60.94;96801.50;4440266;32;20153;-79
2022/09/29 11:29:39;;;;;;;2.15;1.17;;;;;;;20.57;60.94;96816.69;4440057;32;20093;-80
2022/09/29 11:32:30;;;;;;;4.47;1.87;;;;;;;19.26;64.30;96814.94;4439230;32;20139;-80
2022/09/29 11:34:57;;;;;;;1.90;1.10;;;;;;;19.52;64.92;96814.97;4438939;32;20116;-82
2022/09/29 11:37:45;;;;;;;2.58;1.20;;;;;;;19.38;65.32;96821.56;4440144;32;20072;-80
2022/09/29 11:40:29;;;;;;;3.58;1.23;;;;;;;19.33;62.45;96818.56;4439929;32;20444;-80
2022/09/29 11:43:01;;;;;;;2.83;1.20;;;;;;;19.64;63.85;96832.13;4426422;32;20081;-80
2022/09/29 11:46:07;;;;;;;2.37;1.20;;;;;;;20.65;57.31;96832.44;4437356;32;20166;-79
2022/09/29 11:48:46;;;;;;;3.72;1.02;;;;;;;21.13;56.99;96833.56;4440434;32;20173;-79
2022/09/29 11:51:37;;;;;;;1.92;1.10;;;;;;;21.79;56.20;96830.03;4440703;32;20112;-80
2022/09/29 11:54:33;;;;;;;3.83;1.25;;;;;;;22.11;54.68;96827.41;4439718;32;20488;-79
2022/09/29 11:57:09;;;;;;;2.87;1.27;;;;;;;21.74;53.42;96835.81;4441992;32;20066;-79
2022/09/29 11:59:40;;;;;;;2.45;1.30;;;;;;;21.55;53.98;96846.63;4428073;32;20131;-79
2022/09/29 12:02:59;;;;;;;2.30;1.05;;;;;;;22.40;52.02;96847.06;4442098;32;20773;-80
2022/09/29 12:06:06;;;;;;;3.72;1.30;;;;;;;22.40;52.21;96847.88;4414953;32;20062;-79
2022/09/29 12:08:41;;;;;;;1.85;1.10;;;;;;;21.78;54.54;96852.84;4440958;32;20116;-79